ADDS METAR Data INFO
IDs: Format: Raw Decoded Include TAF

Data at: 1940 UTC 18 Feb 2018

KI23 181935Z AUTO 14007KT 10SM CLR 06/01 A3030 RMK AO1
KI23 181915Z AUTO 12006KT 080V140 10SM CLR 06/00 A3031 RMK AO1
KI23 181855Z AUTO 15007KT 10SM CLR 05/00 A3032 RMK AO1
KI23 181835Z AUTO 14006KT 10SM SCT023 04/M00 A3034 RMK AO1
KI23 181815Z AUTO 13004KT 10SM SCT021 04/00 A3035 RMK AO1
KI23 181755Z AUTO 12009KT 10SM SCT021 04/00 A3035 RMK AO1
KI23 181735Z AUTO 15006KT 10SM SCT020 04/00 A3035 RMK AO1
KI23 181715Z AUTO 13008KT 10SM SCT020 03/M00 A3036 RMK AO1
KI23 181655Z AUTO 14003KT 10SM SCT020 03/M01 A3037 RMK AO1
KI23 181635Z AUTO 15008KT 10SM BKN020 03/M00 A3038 RMK AO1
KI23 181615Z AUTO 19005KT 10SM BKN020 01/M02 A3038 RMK AO1
KI23 181555Z AUTO 15006KT 10SM BKN020 01/M02 A3038 RMK AO1
KI23 181535Z AUTO 21005KT 10SM BKN020 01/M02 A3039 RMK AO1
KI23 181515Z AUTO 15004KT 10SM BKN020 01/M02 A3038 RMK AO1
KI23 181455Z AUTO 10003KT 10SM BKN020 01/M02 A3036 RMK AO1
KI23 181435Z AUTO 00000KT 10SM OVC020 00/M03 A3037 RMK AO1
KI23 181415Z AUTO 14006KT 10SM BKN020 00/M03 A3036 RMK AO1
KI23 181355Z AUTO 09005KT 10SM BKN020 00/M03 A3035 RMK AO1
KI23 181335Z AUTO 00000KT 10SM BKN020 00/M03 A3037 RMK AO1
KI23 181315Z AUTO 01003KT 10SM BKN022 00/M03 A3035 RMK AO1
KI23 181255Z AUTO 36004KT 10SM BKN022 00/M03 A3036 RMK AO1
KI23 181235Z AUTO 36003KT 10SM BKN022 00/M02 A3035 RMK AO1
KI23 181215Z AUTO 35004KT 10SM BKN020 00/M02 A3034 RMK AO1
KI23 181155Z AUTO 35004KT 10SM BKN020 00/M02 A3034 RMK AO1
KI23 181135Z AUTO 35003KT 10SM OVC018 00/M02 A3034 RMK AO1
KI23 181115Z AUTO 00000KT 10SM OVC020 00/M01 A3033 RMK AO1
KI23 181055Z AUTO 00000KT 10SM BKN022 00/M01 A3032 RMK AO1
KI23 181035Z AUTO 29005KT 10SM BKN022 00/M01 A3031 RMK AO1
KI23 181015Z AUTO 30005KT 10SM BKN022 00/M01 A3029 RMK AO1
KI23 180955Z AUTO 31007KT 10SM BKN022 00/M02 A3029 RMK AO1
KI23 180935Z AUTO 30008KT 10SM BKN022 00/M02 A3027 RMK AO1
KI23 180915Z AUTO 30010KT 10SM BKN022 00/M02 A3025 RMK AO1
KI23 180855Z AUTO 31012G15KT 10SM BKN022 00/M02 A3023 RMK AO1
KI23 180835Z AUTO 32011KT 10SM OVC020 00/M01 A3023 RMK AO1
KI23 180815Z AUTO 32013G16KT 10SM OVC020 01/M01 A3022 RMK AO1
KI23 180755Z AUTO 31011KT 10SM BKN022 01/M01 A3021 RMK AO1
KI23 180735Z AUTO 30008G16KT 10SM OVC022 01/M01 A3020 RMK AO1
KI23 180715Z AUTO 29013G17KT 10SM BKN022 OVC027 01/M01 A3019 RMK AO1
KI23 180655Z AUTO 28011KT 10SM OVC019 01/00 A3019 RMK AO1
KI23 180635Z AUTO 27011G16KT 10SM BKN019 OVC026 01/00 A3017 RMK AO1
KI23 180615Z AUTO 26013G16KT 10SM SCT023 BKN028 02/00 A3015 RMK AO1
KI23 180555Z AUTO 28012KT 10SM OVC028 02/00 A3014 RMK AO1
KI23 180535Z AUTO 28014G22KT 10SM OVC031 02/00 A3013 RMK AO1
KI23 180515Z AUTO 27013G18KT 10SM SCT020 SCT027 OVC033 02/01 A3011 RMK AO1
KI23 180455Z AUTO 27014G19KT 10SM SCT016 SCT023 OVC035 02/01 A3009 RMK AO1
KI23 180435Z AUTO 27016G21KT 10SM BKN013 OVC021 02/01 A3009 RMK AO1
KI23 180415Z AUTO 26014G20KT 10SM BKN010 OVC014 02/02 A3008 RMK AO1
KI23 180355Z AUTO 25014KT 7SM OVC008 01/01 A3008 RMK AO1
KI23 180335Z AUTO 24012G18KT 7SM OVC006 01/01 A3007 RMK AO1
KI23 180315Z AUTO 24010G16KT 5SM OVC004 01/01 A3006 RMK AO1
KI23 180255Z AUTO 23010KT 4SM OVC004 01/01 A3005 RMK AO1
KI23 180235Z AUTO 23011KT 10SM OVC004 01/01 A3004 RMK AO1
KI23 180215Z AUTO 22008KT 7SM OVC004 01/01 A3004 RMK AO1
KI23 180155Z AUTO 23007KT 7SM OVC004 01/01 A3004 RMK AO1 P0001
KI23 180135Z AUTO 23007KT 5SM OVC004 01/01 A3004 RMK AO1
KI23 180115Z AUTO 24006KT 5SM OVC004 01/01 A3004 RMK AO1
KI23 180055Z AUTO 24004KT 4SM OVC004 01/01 A3004 RMK AO1
KI23 180035Z AUTO 24004KT 4SM OVC004 01/01 A3004 RMK AO1
KI23 180015Z AUTO 23004KT 4SM OVC004 01/01 A3003 RMK AO1
KI23 172355Z AUTO 22004KT 3SM OVC004 01/01 A3003 RMK AO1 P0001
KI23 172335Z AUTO 21005KT 2 1/2SM OVC004 01/01 A3002 RMK AO1
KI23 172315Z AUTO 22004KT 2SM OVC004 01/01 A3002 RMK AO1
KI23 172255Z AUTO 20004KT 1SM OVC004 01/01 A3001 RMK AO1 P0001
KI23 172235Z AUTO 21006KT 1 1/2SM OVC004 01/01 A3002 RMK AO1
KI23 172215Z AUTO 20004KT 5SM OVC004 01/01 A3001 RMK AO1
KI23 172155Z AUTO 20005KT 4SM OVC004 00/00 A3001 RMK AO1 P0003
KI23 172135Z AUTO 18003KT 2 1/2SM OVC002 00/00 A3000 RMK AO1 P0003
KI23 172115Z AUTO 16004KT 1SM OVC002 00/00 A2999 RMK AO1 P0001
KI23 172055Z AUTO 14005KT 3/4SM OVC002 00/00 A2999 RMK AO1 P0002
KI23 172035Z AUTO 13004KT 1/2SM OVC004 00/00 A2999 RMK AO1
KI23 172015Z AUTO 00000KT 3/4SM OVC004 00/00 A3001 RMK AO1
KI23 171955Z AUTO 00000KT 1 1/4SM OVC004 00/00 A3000 RMK AO1 P0004
KI23 171935Z AUTO 00000KT 1SM OVC004 00/00 A3000 RMK AO1 P0002
KI23 171915Z AUTO 00000KT 3/4SM OVC004 00/00 A3002 RMK AO1 P0001
KI23 171855Z AUTO 00000KT 3/4SM OVC004 00/00 A3003 RMK AO1
KI23 171835Z AUTO 18006KT 1 1/4SM OVC006 00/00 A3005 RMK AO1
KI23 171815Z AUTO 17006KT 2SM OVC006 00/M00 A3005 RMK AO1
KI23 171755Z AUTO 17010KT 5SM SCT006 SCT010 00/M01 A3006 RMK AO1
KI23 171735Z AUTO 15007KT 10SM CLR 00/M01 A3008 RMK AO1
KI23 171715Z AUTO 15009KT 10SM CLR 00/M01 A3010 RMK AO1
KI23 171656Z AUTO 13008KT 10SM CLR 00/M01 A3011 RMK AO1
KI23 171635Z AUTO 13006KT 10SM CLR 00/M01 A3011 RMK AO1
KI23 171615Z AUTO 15003KT 10SM CLR 00/M02 A3016 RMK AO1
KI23 171555Z AUTO 12004KT 10SM CLR 00/M02 A3014 RMK AO1
KI23 171535Z AUTO 11004KT 10SM CLR 00/M02 A3012 RMK AO1
KI23 171515Z AUTO 11008KT 10SM CLR M00/M02 A3012 RMK AO1
KI23 171455Z AUTO 12006KT 10SM CLR 00/M02 A3016 RMK AO1
KI23 171435Z AUTO 10005KT 10SM CLR 00/M02 A3017 RMK AO1
KI23 171415Z AUTO 12004KT 10SM SCT029 M00/M02 A3019 RMK AO1
KI23 171355Z AUTO 15004KT 10SM OVC029 M00/M02 A3021 RMK AO1
KI23 171335Z AUTO 11003KT 10SM SCT027 M00/M02 A3020 RMK AO1
KI23 171315Z AUTO 09004KT 10SM BKN027 M01/M01 A3018 RMK AO1
KI23 171255Z AUTO 12006KT 10SM OVC029 M01/M02 A3018 RMK AO1
KI23 171235Z AUTO 08004KT 10SM OVC029 M01/M02 A3019 RMK AO1
KI23 171215Z AUTO 10004KT 10SM OVC029 M01/M02 A3021 RMK AO1
KI23 171155Z AUTO 11005KT 10SM OVC029 M01/M02 A3021 RMK AO1
KI23 171135Z AUTO 10004KT 10SM OVC031 M01/M01 A3021 RMK AO1
KI23 171115Z AUTO 12006KT 10SM OVC031 M01/M02 A3021 RMK AO1
KI23 171055Z AUTO 09004KT 10SM OVC031 M01/M01 A3022 RMK AO1
KI23 171035Z AUTO 09005KT 10SM OVC031 M01/M01 A3022 RMK AO1
KI23 171015Z AUTO 09004KT 10SM BKN031 M00/M01 A3022 RMK AO1
KI23 170955Z AUTO 09005KT 10SM BKN031 M00/M01 A3023 RMK AO1
KI23 170935Z AUTO 10004KT 10SM BKN031 M00/M01 A3024 RMK AO1
KI23 170915Z AUTO 08004KT 10SM OVC031 M00/M01 A3024 RMK AO1
KI23 170855Z AUTO 07003KT 10SM BKN031 M01/M01 A3026 RMK AO1
KI23 170835Z AUTO 00000KT 10SM OVC031 M00/M01 A3026 RMK AO1
KI23 170815Z AUTO 00000KT 10SM OVC031 00/M01 A3026 RMK AO1
KI23 170755Z AUTO 07003KT 10SM OVC029 00/M01 A3026 RMK AO1